createdAt,value
2017-12-17T00:01:33.442Z,47.58
2017-12-17T00:03:59.724Z,53.83
2017-12-17T00:06:25.983Z,47.08
2017-12-17T00:08:52.218Z,48.13
2017-12-17T00:11:18.477Z,50.67
2017-12-17T00:13:44.741Z,49.20
2017-12-17T00:16:11.008Z,54.10
2017-12-17T00:18:37.326Z,44.25
2017-12-17T00:21:03.618Z,48.17
2017-12-17T00:23:30.814Z,45.65
2017-12-17T00:25:57.083Z,44.55
2017-12-17T00:28:23.349Z,42.00
2017-12-17T00:30:49.606Z,45.42
2017-12-17T00:33:15.860Z,40.20
2017-12-17T00:35:42.138Z,42.13
2017-12-17T00:38:08.445Z,41.13
2017-12-17T00:40:34.673Z,41.22
2017-12-17T00:43:01.668Z,51.03
2017-12-17T00:45:27.941Z,49.42
2017-12-17T00:47:54.203Z,39.47
2017-12-17T00:50:21.219Z,48.20
2017-12-17T00:52:47.523Z,47.15
2017-12-17T00:55:13.813Z,40.75
2017-12-17T00:57:40.078Z,44.33
2017-12-17T01:00:07.069Z,49.78
2017-12-17T01:02:34.029Z,49.25
2017-12-17T01:05:00.324Z,42.33
2017-12-17T01:07:26.674Z,41.10
2017-12-17T01:09:53.824Z,40.53
2017-12-17T01:12:20.138Z,43.47
2017-12-17T01:14:46.438Z,47.08
2017-12-17T01:17:12.710Z,41.08
2017-12-17T01:19:39.030Z,41.60
2017-12-17T01:22:05.430Z,46.53
2017-12-17T01:24:31.773Z,37.22
2017-12-17T01:26:58.078Z,34.45
2017-12-17T01:29:24.338Z,43.15
2017-12-17T01:31:50.630Z,44.13
2017-12-17T01:34:17.041Z,42.03
2017-12-17T01:36:43.316Z,41.15
2017-12-17T01:39:15.606Z,40.95
2017-12-17T01:41:42.623Z,45.75
2017-12-17T01:44:08.885Z,42.75
2017-12-17T01:46:35.149Z,41.67
2017-12-17T01:49:01.371Z,49.75
2017-12-17T01:51:27.615Z,43.58
2017-12-17T01:53:53.911Z,52.65
2017-12-17T01:56:20.470Z,44.63
2017-12-17T01:58:46.734Z,40.95
2017-12-17T02:01:12.985Z,43.63
2017-12-17T02:03:39.238Z,44.25
2017-12-17T02:06:06.306Z,42.55
2017-12-17T02:08:32.561Z,41.60
2017-12-17T02:10:58.821Z,40.08
2017-12-17T02:13:25.114Z,42.53
2017-12-17T02:15:51.398Z,47.47
2017-12-17T02:18:17.649Z,45.17
2017-12-17T02:20:43.910Z,51.75
2017-12-17T02:23:10.151Z,44.78
2017-12-17T02:25:36.422Z,45.78
2017-12-17T02:28:02.745Z,44.67
2017-12-17T02:30:29.022Z,43.60
2017-12-17T02:32:55.292Z,42.92
2017-12-17T02:35:21.558Z,41.80
2017-12-17T02:37:47.845Z,51.35
2017-12-17T02:40:14.115Z,46.55
2017-12-17T02:42:40.369Z,42.90
2017-12-17T02:45:06.630Z,38.33
2017-12-17T02:47:32.913Z,38.80
2017-12-17T02:49:59.253Z,44.88
2017-12-17T02:52:25.517Z,34.55
2017-12-17T02:54:52.509Z,42.45
2017-12-17T02:57:18.786Z,39.00
2017-12-17T02:59:45.796Z,38.60
2017-12-17T03:02:12.044Z,37.28
2017-12-17T03:04:38.287Z,36.10
2017-12-17T03:07:04.565Z,46.75
2017-12-17T03:09:31.577Z,39.75
2017-12-17T03:11:58.153Z,42.67
2017-12-17T03:14:24.456Z,38.90
2017-12-17T03:16:50.754Z,43.67
2017-12-17T03:19:17.033Z,35.95
2017-12-17T03:21:44.062Z,37.60
2017-12-17T03:24:10.351Z,45.90
2017-12-17T03:26:36.672Z,38.55
2017-12-17T03:29:03.733Z,44.63
2017-12-17T03:31:29.988Z,44.13
2017-12-17T03:33:56.254Z,39.92
2017-12-17T03:36:22.527Z,47.47
2017-12-17T03:38:48.813Z,45.97
2017-12-17T03:41:16.288Z,45.58
2017-12-17T03:43:42.550Z,45.92
2017-12-17T03:46:09.186Z,38.13
2017-12-17T03:48:36.402Z,45.70
2017-12-17T03:51:03.402Z,46.40
2017-12-17T03:53:29.670Z,42.47
2017-12-17T03:55:55.938Z,39.55
2017-12-17T03:58:22.979Z,43.17
2017-12-17T04:00:49.248Z,45.20
2017-12-17T04:03:16.267Z,34.22
2017-12-17T04:05:42.535Z,39.72
2017-12-17T04:08:09.550Z,37.53
2017-12-17T04:10:35.865Z,37.97
2017-12-17T04:13:02.120Z,37.50
2017-12-17T04:15:31.393Z,39.83
2017-12-17T04:17:58.431Z,38.75
2017-12-17T04:20:24.716Z,39.70
2017-12-17T04:22:50.979Z,40.88
2017-12-17T04:25:17.333Z,40.63
2017-12-17T04:27:43.610Z,41.17
2017-12-17T04:30:09.893Z,37.00
2017-12-17T04:32:36.181Z,40.65
2017-12-17T04:35:02.467Z,40.15
2017-12-17T04:37:28.746Z,44.55
2017-12-17T04:39:55.159Z,40.80
2017-12-17T04:42:21.446Z,40.05
2017-12-17T04:44:49.061Z,36.42
2017-12-17T04:47:15.333Z,40.75
2017-12-17T04:49:41.611Z,42.78
2017-12-17T04:52:07.914Z,44.63
2017-12-17T04:54:34.191Z,39.65
2017-12-17T04:57:00.469Z,41.17
2017-12-17T04:59:26.770Z,43.38
2017-12-17T05:01:53.051Z,44.78
2017-12-17T05:04:19.349Z,46.30
2017-12-17T05:06:45.630Z,43.90
2017-12-17T05:09:11.877Z,45.67
2017-12-17T05:11:38.129Z,46.45
2017-12-17T05:14:05.162Z,46.97
2017-12-17T05:16:31.436Z,52.30
2017-12-17T05:18:58.483Z,46.53
2017-12-17T05:21:24.752Z,56.42
2017-12-17T05:23:51.042Z,51.20
2017-12-17T05:26:17.337Z,47.83
2017-12-17T05:28:43.608Z,51.15
2017-12-17T05:31:09.905Z,50.78
2017-12-17T05:33:36.974Z,48.15
2017-12-17T05:36:03.313Z,52.50
2017-12-17T05:38:31.582Z,49.67
2017-12-17T05:40:57.866Z,44.13
2017-12-17T05:43:24.168Z,48.15
2017-12-17T05:45:50.472Z,51.42
2017-12-17T05:48:17.712Z,51.85
2017-12-17T05:50:43.995Z,48.87
2017-12-17T05:53:10.245Z,45.65
2017-12-17T05:55:37.343Z,48.20
2017-12-17T05:58:04.465Z,45.67
2017-12-17T06:00:30.861Z,47.80
2017-12-17T06:02:57.147Z,47.97
2017-12-17T06:05:23.422Z,52.47
2017-12-17T06:07:49.730Z,57.83
2017-12-17T06:10:16.039Z,56.30
2017-12-17T06:12:42.328Z,49.45
2017-12-17T06:15:09.376Z,50.30
2017-12-17T06:17:35.669Z,52.62
2017-12-17T06:20:01.934Z,47.22
2017-12-17T06:22:28.226Z,49.70
2017-12-17T06:24:54.565Z,52.17
2017-12-17T06:27:21.170Z,52.05
2017-12-17T06:29:47.455Z,50.30
2017-12-17T06:32:13.724Z,58.78
2017-12-17T06:34:40.730Z,51.80
2017-12-17T06:37:07.019Z,54.00
2017-12-17T06:39:33.270Z,54.78
2017-12-17T06:41:59.577Z,60.45
2017-12-17T06:44:25.837Z,52.85
2017-12-17T06:46:52.922Z,52.05
2017-12-17T06:49:19.938Z,54.85
2017-12-17T06:51:46.218Z,52.92
2017-12-17T06:54:12.524Z,62.38
2017-12-17T06:56:39.258Z,46.85
2017-12-17T06:59:05.564Z,55.20
2017-12-17T07:01:31.895Z,52.38
2017-12-17T07:03:59.132Z,41.92
2017-12-17T07:06:25.398Z,51.35
2017-12-17T07:08:51.697Z,45.85
2017-12-17T07:11:17.954Z,44.75
2017-12-17T07:13:44.989Z,45.97
2017-12-17T07:16:11.241Z,42.92
2017-12-17T07:18:37.785Z,46.13
2017-12-17T07:21:04.114Z,48.55
2017-12-17T07:23:30.390Z,43.72
2017-12-17T07:25:56.703Z,48.63
2017-12-17T07:28:23.024Z,50.90
2017-12-17T07:30:49.323Z,49.45
2017-12-17T07:33:16.356Z,49.17
2017-12-17T07:35:42.646Z,52.05
2017-12-17T07:38:08.921Z,49.88
2017-12-17T07:40:35.192Z,49.45
2017-12-17T07:43:01.465Z,49.00
2017-12-17T07:45:27.692Z,54.38
2017-12-17T07:47:54.725Z,49.75
2017-12-17T07:50:21.145Z,41.67
2017-12-17T07:52:47.421Z,48.10
2017-12-17T07:55:14.465Z,50.20
2017-12-17T07:57:40.742Z,49.42
2017-12-17T08:00:07.477Z,45.38
2017-12-17T08:02:33.765Z,50.63
2017-12-17T08:05:00.850Z,46.05
2017-12-17T08:07:27.165Z,48.80
2017-12-17T08:09:53.510Z,45.67
2017-12-17T08:12:19.806Z,44.08
2017-12-17T08:14:46.080Z,43.40
2017-12-17T08:17:12.364Z,46.30
2017-12-17T08:19:38.660Z,60.35
2017-12-17T08:22:05.050Z,60.55
2017-12-17T08:24:31.734Z,62.97
2017-12-17T08:26:58.021Z,61.30
2017-12-17T08:29:24.341Z,58.65
2017-12-17T08:31:50.601Z,54.88
2017-12-17T08:34:16.908Z,50.22
2017-12-17T08:36:43.426Z,49.63
2017-12-17T08:39:09.718Z,54.75
2017-12-17T08:41:36.906Z,51.75
2017-12-17T08:44:03.907Z,55.58
2017-12-17T08:46:30.205Z,53.38
2017-12-17T08:49:00.766Z,51.78
2017-12-17T08:51:27.053Z,54.72
2017-12-17T08:53:53.376Z,61.80
2017-12-17T08:56:20.498Z,49.00
2017-12-17T08:58:47.578Z,55.15
2017-12-17T09:01:14.583Z,62.15
2017-12-17T09:03:40.882Z,52.60
2017-12-17T09:06:07.238Z,55.60
2017-12-17T09:08:33.577Z,55.83
2017-12-17T09:10:59.865Z,49.72
2017-12-17T09:13:26.926Z,54.67
2017-12-17T09:15:53.205Z,51.30
2017-12-17T09:18:21.039Z,54.97
2017-12-17T09:20:47.362Z,60.90
2017-12-17T09:23:13.661Z,63.38
2017-12-17T09:25:39.942Z,55.38
2017-12-17T09:28:06.316Z,66.28
2017-12-17T09:30:36.696Z,66.43
2017-12-17T09:33:03.666Z,60.22
2017-12-17T09:35:29.925Z,62.72
2017-12-17T09:37:56.161Z,63.25
2017-12-17T09:40:22.469Z,61.75
2017-12-17T09:42:48.825Z,58.95
2017-12-17T09:45:17.294Z,63.45
2017-12-17T09:47:43.529Z,66.35
2017-12-17T09:50:09.787Z,54.28
2017-12-17T09:52:36.789Z,63.38
2017-12-17T09:55:03.049Z,64.87
2017-12-17T09:57:29.335Z,69.53
2017-12-17T09:59:55.557Z,58.50
2017-12-17T10:02:21.817Z,58.13
2017-12-17T10:04:48.106Z,64.25
2017-12-17T10:07:14.368Z,52.67
2017-12-17T10:09:40.634Z,47.53
2017-12-17T10:12:07.654Z,50.83
2017-12-17T10:14:33.946Z,50.12
2017-12-17T10:17:00.937Z,46.30
2017-12-17T10:19:27.316Z,47.90
2017-12-17T10:21:54.481Z,47.05
2017-12-17T10:24:21.128Z,43.70
2017-12-17T10:26:47.397Z,40.78
2017-12-17T10:29:14.489Z,49.88
2017-12-17T10:31:40.800Z,53.00
2017-12-17T10:34:07.862Z,45.58
2017-12-17T10:36:34.098Z,41.08
2017-12-17T10:39:00.365Z,42.70
2017-12-17T10:41:27.364Z,42.78
2017-12-17T10:43:53.650Z,33.78
2017-12-17T10:46:19.929Z,41.10
2017-12-17T10:48:46.201Z,39.67
2017-12-17T10:51:12.478Z,51.47
2017-12-17T10:53:39.542Z,44.70
2017-12-17T10:56:06.697Z,41.53
2017-12-17T10:58:32.957Z,43.35
2017-12-17T11:00:59.223Z,35.17
2017-12-17T11:03:27.607Z,38.85
2017-12-17T11:05:54.074Z,37.53
2017-12-17T11:08:20.350Z,38.08
2017-12-17T11:10:46.589Z,32.85
2017-12-17T11:13:12.901Z,39.05
2017-12-17T11:15:39.178Z,35.00
2017-12-17T11:18:05.474Z,38.38
2017-12-17T11:20:31.781Z,40.28
2017-12-17T11:22:58.062Z,32.75
2017-12-17T11:25:24.357Z,33.67
2017-12-17T11:27:51.498Z,32.75
2017-12-17T11:30:17.790Z,34.38
2017-12-17T11:32:44.789Z,36.35
2017-12-17T11:35:11.081Z,39.13
2017-12-17T11:37:38.105Z,47.13
2017-12-17T11:40:04.445Z,41.95
2017-12-17T11:42:30.727Z,43.67
2017-12-17T11:44:57.034Z,46.08
2017-12-17T11:47:23.313Z,40.12
2017-12-17T11:49:49.711Z,32.47
2017-12-17T11:52:17.825Z,44.15
2017-12-17T11:54:44.114Z,46.45
2017-12-17T11:57:14.526Z,44.25
2017-12-17T11:59:40.785Z,43.22
2017-12-17T12:02:07.105Z,49.10
2017-12-17T12:04:33.354Z,39.05
2017-12-17T12:06:59.645Z,44.63
2017-12-17T12:09:30.154Z,47.42
2017-12-17T12:11:56.417Z,42.60
2017-12-17T12:14:22.707Z,43.25
2017-12-17T12:16:49.065Z,47.47
2017-12-17T12:19:15.306Z,46.78
2017-12-17T12:21:41.674Z,56.72
2017-12-17T12:24:08.129Z,50.97
2017-12-17T12:26:34.597Z,46.45
2017-12-17T12:29:01.884Z,53.38
2017-12-17T12:31:28.207Z,53.22
2017-12-17T12:33:54.552Z,51.15
2017-12-17T12:36:20.948Z,51.67
2017-12-17T12:38:47.301Z,50.10
2017-12-17T12:41:13.568Z,44.63
2017-12-17T12:43:39.831Z,46.90
2017-12-17T12:46:06.106Z,58.53
2017-12-17T12:48:32.486Z,54.67
2017-12-17T12:50:58.764Z,49.75
2017-12-17T12:53:25.063Z,46.92
2017-12-17T12:55:52.050Z,47.58
2017-12-17T12:58:18.385Z,51.28
2017-12-17T13:00:44.706Z,46.33
2017-12-17T13:03:11.044Z,38.67
2017-12-17T13:05:38.127Z,42.62
2017-12-17T13:08:04.906Z,42.80
2017-12-17T13:10:31.190Z,49.58
2017-12-17T13:12:57.521Z,48.25
2017-12-17T13:15:24.565Z,42.45
2017-12-17T13:17:51.554Z,47.17
2017-12-17T13:20:17.832Z,45.50
2017-12-17T13:22:44.115Z,50.38
2017-12-17T13:25:10.493Z,50.75
2017-12-17T13:27:37.575Z,44.80
2017-12-17T13:30:03.878Z,50.10
2017-12-17T13:32:31.030Z,45.67
2017-12-17T13:34:58.122Z,45.78
2017-12-17T13:37:25.167Z,45.15
2017-12-17T13:39:51.460Z,51.75
2017-12-17T13:42:17.722Z,48.70
2017-12-17T13:44:44.005Z,50.65
2017-12-17T13:47:10.361Z,46.03
2017-12-17T13:49:36.710Z,49.00
2017-12-17T13:52:03.702Z,55.58
2017-12-17T13:54:30.369Z,46.60
2017-12-17T13:56:56.661Z,50.38
2017-12-17T13:59:23.661Z,45.38
2017-12-17T14:01:49.945Z,46.90
2017-12-17T14:04:17.101Z,40.70
2017-12-17T14:06:43.530Z,43.53
2017-12-17T14:09:09.807Z,42.97
2017-12-17T14:11:37.847Z,40.33
2017-12-17T14:14:04.169Z,40.20
2017-12-17T14:16:30.447Z,41.97
2017-12-17T14:18:56.721Z,42.20
2017-12-17T14:21:23.010Z,40.65
2017-12-17T14:23:49.278Z,42.10
2017-12-17T14:26:17.156Z,35.78
2017-12-17T14:28:44.749Z,47.70
2017-12-17T14:31:11.011Z,40.28
2017-12-17T14:33:38.181Z,44.83
2017-12-17T14:36:05.902Z,50.60
2017-12-17T14:38:32.146Z,41.55
2017-12-17T14:40:58.418Z,46.08
2017-12-17T14:43:24.680Z,47.40
2017-12-17T14:45:51.789Z,42.78
2017-12-17T14:48:18.065Z,38.63
2017-12-17T14:50:44.353Z,36.70
2017-12-17T14:53:10.581Z,39.90
2017-12-17T14:55:36.847Z,33.55
2017-12-17T14:58:03.084Z,38.40
2017-12-17T15:00:29.370Z,34.15
2017-12-17T15:02:55.684Z,33.55
2017-12-17T15:05:22.100Z,42.45
2017-12-17T15:07:48.365Z,33.33
2017-12-17T15:10:14.696Z,42.35
2017-12-17T15:12:44.705Z,46.67
2017-12-17T15:15:11.029Z,34.50
2017-12-17T15:17:37.281Z,31.25
2017-12-17T15:20:03.745Z,35.80
2017-12-17T15:22:30.077Z,32.70
2017-12-17T15:24:56.368Z,32.63
2017-12-17T15:27:25.290Z,44.75
2017-12-17T15:29:51.537Z,39.00
2017-12-17T15:32:17.875Z,37.25
2017-12-17T15:34:44.158Z,40.28
2017-12-17T15:37:10.447Z,31.87
2017-12-17T15:42:23.145Z,29.25
2017-12-17T15:44:49.451Z,38.15
2017-12-17T15:47:21.448Z,37.67
2017-12-17T15:49:47.814Z,28.20
2017-12-17T15:52:16.327Z,31.33
2017-12-17T15:54:43.417Z,33.13
2017-12-17T15:57:09.682Z,37.15
2017-12-17T15:59:35.949Z,36.33
2017-12-17T16:02:03.936Z,34.85
2017-12-17T16:04:30.205Z,29.20
2017-12-17T16:06:57.225Z,33.25
2017-12-17T16:09:23.497Z,28.58
2017-12-17T16:11:49.768Z,29.30
2017-12-17T16:14:19.929Z,36.78
2017-12-17T16:16:46.181Z,31.37
2017-12-17T16:19:12.423Z,33.53
2017-12-17T16:21:38.705Z,36.30
2017-12-17T16:24:05.701Z,34.63
2017-12-17T16:26:31.933Z,27.35
2017-12-17T16:28:58.243Z,29.67
2017-12-17T16:31:24.470Z,28.50
2017-12-17T16:33:50.704Z,32.38
2017-12-17T16:36:17.011Z,32.78
2017-12-17T16:38:43.228Z,31.77
2017-12-17T16:41:10.219Z,27.55
2017-12-17T16:43:36.453Z,29.77
2017-12-17T16:46:03.103Z,26.70
2017-12-17T16:48:29.449Z,30.60
2017-12-17T16:50:55.685Z,31.08
2017-12-17T16:53:22.008Z,25.88
2017-12-17T16:55:48.272Z,35.47
2017-12-17T16:58:16.662Z,30.02
2017-12-17T17:00:43.690Z,33.63
2017-12-17T17:03:09.951Z,32.00
2017-12-17T17:05:36.915Z,33.22
2017-12-17T17:08:03.995Z,36.22
2017-12-17T17:10:31.074Z,34.53
2017-12-17T17:12:57.354Z,33.92
2017-12-17T17:15:23.952Z,39.53
2017-12-17T17:17:50.236Z,41.40
2017-12-17T17:20:16.565Z,41.45
2017-12-17T17:22:42.858Z,42.00
2017-12-17T17:25:11.734Z,45.10
2017-12-17T17:27:38.052Z,45.20
2017-12-17T17:30:04.324Z,46.53
2017-12-17T17:32:30.537Z,43.50
2017-12-17T17:34:57.497Z,39.55
2017-12-17T17:37:23.738Z,45.47
2017-12-17T17:39:50.004Z,34.67
2017-12-17T17:42:16.248Z,50.15
2017-12-17T17:44:42.497Z,39.65
2017-12-17T17:47:08.717Z,37.85
2017-12-17T17:49:35.025Z,37.42
2017-12-17T17:52:01.380Z,44.80
2017-12-17T17:54:27.946Z,38.55
2017-12-17T17:56:54.197Z,38.55
2017-12-17T17:59:20.559Z,38.05
2017-12-17T18:01:48.531Z,45.03
2017-12-17T18:04:14.729Z,41.78
2017-12-17T18:06:44.556Z,36.25
2017-12-17T18:09:10.802Z,46.50
2017-12-17T18:11:37.087Z,41.00
2017-12-17T18:14:03.345Z,34.47
2017-12-17T18:16:29.991Z,36.70
2017-12-17T18:18:56.263Z,37.05
2017-12-17T18:21:22.520Z,34.10
2017-12-17T18:23:51.078Z,37.28
2017-12-17T18:26:17.499Z,43.05
2017-12-17T18:28:43.946Z,34.28
2017-12-17T18:31:10.161Z,29.63
2017-12-17T18:33:36.261Z,32.45
2017-12-17T18:36:02.319Z,30.90
2017-12-17T18:38:29.117Z,39.22
2017-12-17T18:40:55.158Z,35.60
2017-12-17T18:43:21.189Z,37.65
2017-12-17T18:45:47.242Z,33.08
2017-12-17T18:48:14.054Z,35.78
2017-12-17T18:50:40.841Z,37.20
2017-12-17T18:53:06.934Z,31.90
2017-12-17T18:55:33.054Z,36.30
2017-12-17T18:57:59.101Z,33.25
2017-12-17T19:00:25.165Z,33.28
2017-12-17T19:02:51.230Z,34.80
2017-12-17T19:05:17.269Z,34.13
2017-12-17T19:07:43.314Z,39.05
2017-12-17T19:10:09.987Z,33.50
2017-12-17T19:12:36.797Z,36.47
2017-12-17T19:15:02.954Z,32.42
2017-12-17T19:17:31.345Z,31.00
2017-12-17T19:19:57.442Z,35.58
2017-12-17T19:22:23.564Z,37.45
2017-12-17T19:24:49.618Z,36.83
2017-12-17T19:27:16.465Z,40.12
2017-12-17T19:29:44.411Z,40.55
2017-12-17T19:32:10.477Z,36.13
2017-12-17T19:34:36.642Z,43.50
2017-12-17T19:37:02.775Z,36.38
2017-12-17T19:39:29.597Z,43.90
2017-12-17T19:41:55.665Z,36.15
2017-12-17T19:44:22.589Z,41.75
2017-12-17T19:46:48.765Z,41.10
2017-12-17T19:49:14.910Z,40.40
2017-12-17T19:51:41.524Z,35.92
2017-12-17T19:54:08.464Z,47.60
2017-12-17T19:56:34.517Z,39.40
2017-12-17T19:59:00.666Z,32.95
2017-12-17T20:01:26.746Z,30.15
2017-12-17T20:03:52.793Z,32.25
2017-12-17T20:06:18.833Z,30.30
2017-12-17T20:08:44.937Z,34.42
2017-12-17T20:11:10.974Z,30.92
2017-12-17T20:13:37.122Z,31.02
2017-12-17T20:16:03.918Z,34.42
2017-12-17T20:18:30.008Z,33.30
2017-12-17T20:20:56.077Z,32.00
2017-12-17T20:23:22.603Z,32.03
2017-12-17T20:25:48.671Z,28.52
2017-12-17T20:28:14.738Z,27.25
2017-12-17T20:30:40.914Z,30.58
2017-12-17T20:33:06.993Z,31.23
2017-12-17T20:35:33.054Z,32.92
2017-12-17T20:37:59.106Z,30.40
2017-12-17T20:40:26.017Z,31.45
2017-12-17T20:42:52.053Z,29.70
2017-12-17T20:45:18.124Z,30.40
2017-12-17T20:47:44.169Z,29.27
2017-12-17T20:50:10.970Z,25.55
2017-12-17T20:52:37.137Z,31.55
2017-12-17T20:55:03.201Z,32.38
2017-12-17T20:57:29.269Z,23.87
2017-12-17T20:59:55.325Z,29.17
2017-12-17T21:02:21.456Z,25.62
2017-12-17T21:04:47.545Z,30.10
2017-12-17T21:07:13.622Z,27.48
2017-12-17T21:09:39.661Z,33.40
2017-12-17T21:12:05.697Z,25.55
2017-12-17T21:14:31.804Z,25.77
2017-12-17T21:16:57.861Z,26.92
2017-12-17T21:19:23.937Z,27.75
2017-12-17T21:21:49.999Z,23.15
2017-12-17T21:24:16.039Z,32.17
2017-12-17T21:26:42.193Z,25.27
2017-12-17T21:29:08.241Z,22.42
2017-12-17T21:31:34.273Z,20.67
2017-12-17T21:34:00.334Z,23.50
2017-12-17T21:36:27.128Z,16.80
2017-12-17T21:38:53.247Z,19.80
2017-12-17T21:41:19.325Z,18.42
2017-12-17T21:43:45.377Z,23.83
2017-12-17T21:46:11.530Z,16.08
2017-12-17T21:48:38.369Z,17.75
2017-12-17T21:51:07.598Z,19.73
2017-12-17T21:53:34.382Z,16.90
2017-12-17T21:56:00.417Z,15.95
2017-12-17T21:58:26.527Z,17.23
2017-12-17T22:00:53.309Z,17.35
2017-12-17T22:03:19.350Z,15.07
2017-12-17T22:05:45.396Z,17.25
2017-12-17T22:08:11.427Z,11.98
2017-12-17T22:10:37.485Z,12.80
2017-12-17T22:13:03.544Z,12.27
2017-12-17T22:15:29.585Z,16.10
2017-12-17T22:17:55.629Z,13.48
2017-12-17T22:20:21.682Z,13.35
2017-12-17T22:22:47.776Z,12.75
2017-12-17T22:25:13.830Z,13.40
2017-12-17T22:27:39.975Z,14.55
2017-12-17T22:30:06.113Z,11.95
2017-12-17T22:32:32.150Z,11.60
2017-12-17T22:34:58.301Z,11.95
2017-12-17T22:37:24.335Z,11.88
2017-12-17T22:39:50.376Z,13.55
2017-12-17T22:42:18.281Z,12.05
2017-12-17T22:44:44.626Z,10.10
2017-12-17T22:47:12.062Z,9.73
2017-12-17T22:49:38.272Z,11.02
2017-12-17T22:52:04.584Z,8.65
2017-12-17T22:54:30.971Z,11.27
2017-12-17T22:56:57.238Z,10.93
2017-12-17T22:59:23.474Z,16.15
2017-12-17T23:01:49.732Z,14.13
2017-12-17T23:04:15.981Z,10.02
2017-12-17T23:06:42.417Z,10.25
2017-12-17T23:09:09.404Z,14.13
2017-12-17T23:11:36.389Z,10.00
2017-12-17T23:14:03.576Z,11.73
2017-12-17T23:16:30.553Z,11.65
2017-12-17T23:18:56.802Z,13.73
2017-12-17T23:21:23.077Z,9.73
2017-12-17T23:23:50.052Z,12.02
2017-12-17T23:26:16.081Z,13.35
2017-12-17T23:28:43.057Z,12.55
2017-12-17T23:31:09.093Z,13.50
2017-12-17T23:33:35.242Z,14.02
2017-12-17T23:36:01.480Z,9.63
2017-12-17T23:38:27.728Z,13.40
2017-12-17T23:40:53.950Z,9.85
2017-12-17T23:43:20.177Z,13.02
2017-12-17T23:45:46.753Z,13.32
2017-12-17T23:48:13.113Z,8.63
2017-12-17T23:50:39.357Z,13.38
2017-12-17T23:53:05.629Z,11.55
2017-12-17T23:55:31.869Z,14.48
2017-12-17T23:57:58.098Z,11.25
